Latest Weather Observations for Tewantin

IDQ60801

Issued at 10:02 pm EST Monday 22 April 2019 (issued every 10 minutes, with the page automatically refreshed every 10 minutes)

About weather observations | Map of weather stations | Latest weather observations for QLD | Other Formats
Station Details ID: 040908 Name: TEWANTIN RSL PARK Lat: -26.39 Lon: 153.04 Height: 6.4 m
Data from the previous 72 hours. | See also: Recent months at Tewantin
Date/Time
EST
Temp
°C
App
Temp
°C
Dew
Point
°C
Rel
Hum
%
Delta-T
°C
Wind Press
QNH
hPa
Press
MSL
hPa
Rain since
9am
mm
Dir  Spd
km/h
Gust
km/h
Spd
kts
Gust
kts
22/10:00pm 23.6 23.9 19.7 79 2.5 ESE 17 30 9 16 1021.3 1021.3 0.0
22/09:30pm 23.6 24.4 19.9 80 2.4 ESE 15 22 8 12 1021.3 1021.3 0.0
22/09:00pm 23.7 23.8 19.2 76 2.9 ESE 17 26 9 14 1021.2 1021.2 0.0
22/08:30pm 23.9 24.1 19.4 76 2.9 ESE 17 28 9 15 1021.0 1021.0 0.0
22/08:00pm 23.7 24.3 19.4 77 2.7 ESE 15 30 8 16 1020.8 1020.8 0.0
22/07:30pm 23.8 24.1 19.5 77 2.8 ESE 17 26 9 14 1020.6 1020.6 0.0
22/07:00pm 23.6 25.1 20.5 83 2.0 ESE 13 22 7 12 1020.2 1020.2 0.0
22/06:30pm 23.7 24.9 20.6 83 2.0 ESE 15 20 8 11 1019.9 1019.9 0.0
22/06:00pm 22.3 24.7 20.8 91 1.0 S 9 13 5 7 1019.7 1019.7 0.0
22/05:30pm 22.4 24.6 20.5 89 1.2 S 9 13 5 7 1019.5 1019.5 0.0
22/05:00pm 22.9 24.3 20.4 86 1.6 S 13 22 7 12 1019.2 1019.2 0.0
22/04:30pm 23.5 24.7 19.8 80 2.4 SSE 13 24 7 13 1019.0 1019.0 0.0
22/04:00pm 23.7 25.2 20.6 83 2.0 SSE 13 24 7 13 1018.9 1018.9 0.0
22/03:30pm 23.3 25.1 20.4 84 1.9 SE 11 20 6 11 1018.9 1018.9 0.0
22/03:00pm 24.2 24.8 20.3 79 2.5 SSE 17 26 9 14 1018.8 1018.8 0.0
22/02:30pm 23.3 23.2 19.5 79 2.4 SE 19 30 10 16 1019.0 1019.0 0.0
22/02:00pm 24.2 23.9 19.1 73 3.2 SE 19 32 10 17 1018.7 1018.7 0.0
22/01:30pm 25.4 25.9 20.0 72 3.5 SE 17 32 9 17 1018.9 1018.9 0.0
22/01:00pm 25.0 24.3 19.4 71 3.6 ESE 22 32 12 17 1019.0 1019.0 0.0
22/12:30pm 24.7 24.3 19.3 72 3.5 SE 20 33 11 18 1019.2 1019.2 0.0
22/12:00pm 24.6 23.7 18.1 67 4.1 SE 20 32 11 17 1019.5 1019.5 0.0
22/11:30am 24.9 24.4 19.1 70 3.7 SE 20 32 11 17 1019.7 1019.7 0.0
22/11:00am 24.6 24.8 19.4 73 3.3 SE 17 28 9 15 - - 0.0
22/10:30am 25.1 25.4 19.5 71 3.6 SE 17 30 9 16 1020.4 1020.4 0.0
22/10:00am 24.5 23.8 18.7 70 3.7 SE 20 35 11 19 1020.6 1020.6 0.0
22/09:30am 24.5 24.0 19.1 72 3.4 SE 20 33 11 18 1020.6 1020.6 0.0
22/09:00am 24.0 23.2 18.4 71 3.5 ESE 20 35 11 19 1020.6 1020.6 3.0
22/08:30am 24.2 24.0 18.4 70 3.7 SE 17 28 9 15 1020.3 1020.3 3.0
22/08:00am 24.1 24.4 18.7 72 3.4 ESE 15 26 8 14 1019.9 1019.9 3.0
22/07:30am 23.7 23.8 18.4 72 3.3 ESE 15 26 8 14 1019.6 1019.6 3.0
22/07:00am 23.2 24.5 19.2 78 2.5 SE 11 17 6 9 1019.3 1019.3 3.0
22/06:30am 22.8 23.8 18.6 77 2.6 SE 11 19 6 10 1019.4 1019.4 3.0
22/06:00am 22.8 22.8 19.0 79 2.4 SE 17 24 9 13 1019.0 1019.0 3.0
22/05:30am 22.7 22.9 18.5 77 2.6 ESE 15 24 8 13 1018.7 1018.7 3.0
22/05:00am 22.8 23.4 18.6 77 2.6 SE 13 22 7 12 1018.5 1018.5 3.0
22/04:30am 22.9 23.2 18.0 74 3.1 ESE 13 20 7 11 1018.6 1018.6 3.0
22/04:00am 23.0 23.2 18.5 76 2.8 ESE 15 20 8 11 1018.4 1018.4 3.0
22/03:30am 23.0 22.9 17.9 73 3.2 ESE 15 24 8 13 1018.2 1018.2 3.0
22/03:00am 22.9 23.2 18.7 77 2.6 ESE 15 26 8 14 1018.3 1018.3 3.0
22/02:30am 22.6 24.1 19.8 84 1.8 SE 11 26 6 14 1018.6 1018.6 3.0
22/02:00am 22.0 23.9 19.7 87 1.5 SSE 9 15 5 8 1019.1 1019.1 3.0
22/01:30am 22.7 23.6 19.3 81 2.2 SSE 13 24 7 13 1019.6 1019.6 3.0
22/01:00am 22.9 24.4 19.7 82 2.0 SSE 11 24 6 13 1019.8 1019.8 3.0
22/12:30am 22.7 23.5 19.1 80 2.3 SE 13 22 7 12 1020.0 1020.0 3.0
22/12:00am 22.6 24.1 19.8 84 1.8 SE 11 17 6 9 1020.0 1020.0 3.0
 
Date/Time
EST
Temp
°C
App
Temp
°C
Dew
Point
°C
Rel
Hum
%
Delta-T
°C
Wind Press
QNH
hPa
Press
MSL
hPa
Rain since
9am
mm
Dir  Spd
km/h
Gust
km/h
Spd
kts
Gust
kts
21/11:30pm 22.7 23.9 19.9 84 1.8 SE 13 24 7 13 1020.4 1020.4 3.0
21/11:00pm 20.8 23.1 20.6 99 0.1 S 9 11 5 6 1020.5 1020.5 3.0
21/10:30pm 20.6 22.4 20.4 99 0.1 SSW 11 17 6 9 1020.8 1020.8 2.8
21/10:00pm 20.9 23.2 20.7 99 0.1 SSW 9 15 5 8 1020.9 1020.9 2.8
21/09:30pm 20.8 22.7 20.6 99 0.1 SSW 11 17 6 9 1020.9 1020.9 2.4
21/09:00pm 21.4 23.2 21.1 98 0.2 S 13 20 7 11 1020.8 1020.8 2.4
21/08:30pm 22.1 23.6 20.6 91 1.0 SSE 13 20 7 11 1020.5 1020.5 2.2
21/08:00pm 21.7 24.2 21.0 96 0.5 SSE 9 13 5 7 1020.3 1020.3 2.2
21/07:30pm 21.5 23.4 21.3 99 0.1 S 13 20 7 11 1020.1 1020.1 2.2
21/07:00pm 21.5 23.8 21.3 99 0.1 SSE 11 20 6 11 1019.8 1019.8 2.2
21/06:30pm 23.2 24.2 18.7 76 2.8 SE 11 19 6 10 1019.3 1019.3 0.0
21/06:00pm 23.1 23.7 18.6 76 2.8 SSE 13 20 7 11 1019.2 1019.2 0.0
21/05:30pm 23.0 23.6 18.7 77 2.7 SSE 13 24 7 13 1019.2 1019.2 0.0
21/05:00pm 23.9 24.1 17.6 68 3.9 SE 13 26 7 14 1019.0 1019.0 0.0
21/04:30pm 24.0 23.1 17.7 68 3.9 SE 19 28 10 15 1018.9 1018.9 0.0
21/04:00pm 24.1 22.9 17.1 65 4.3 ESE 19 28 10 15 1018.9 1018.9 0.0
21/03:30pm 24.5 23.3 17.0 63 4.6 SE 19 30 10 16 1018.9 1018.9 0.0
21/03:00pm 24.8 23.0 17.0 62 4.8 ESE 22 33 12 18 1018.9 1018.9 0.0
21/02:30pm 24.9 23.0 16.6 60 5.1 ESE 22 33 12 18 1019.0 1019.0 0.0
21/02:00pm 25.5 23.6 16.6 58 5.5 SE 22 43 12 23 1019.1 1019.1 0.0
21/01:30pm 25.1 23.4 17.3 62 4.9 ESE 22 33 12 18 1019.3 1019.3 0.0
21/01:00pm 25.2 23.2 17.4 62 4.9 ESE 24 37 13 20 1019.4 1019.4 0.0
21/12:30pm 25.0 24.4 18.4 66 4.2 SE 19 32 10 17 1019.5 1019.5 0.0
21/12:00pm 25.0 24.3 18.7 68 4.0 SE 20 33 11 18 1019.6 1019.6 0.0
21/11:30am 25.4 25.3 18.8 67 4.2 SE 17 28 9 15 1019.9 1019.9 0.0
21/11:00am 25.0 24.7 18.2 66 4.3 SE 17 35 9 19 1020.3 1020.3 0.0
21/10:30am 25.2 24.6 18.4 66 4.3 SE 19 33 10 18 1020.5 1020.5 0.0
21/10:00am 25.1 23.4 18.1 65 4.4 ESE 24 37 13 20 1020.8 1020.8 0.0
21/09:30am 24.4 24.4 19.0 72 3.4 SE 17 30 9 16 1020.8 1020.8 0.0
21/09:00am 24.0 25.9 21.3 85 1.8 S 13 19 7 10 1020.9 1020.9 9.8
21/08:30am 23.6 23.6 18.9 75 3.0 SE 17 33 9 18 1020.9 1020.9 9.2
21/08:00am 23.9 24.6 18.8 73 3.2 SE 13 19 7 10 1020.7 1020.7 9.2
21/07:30am 23.5 24.5 18.6 74 3.1 SE 11 20 6 11 1020.6 1020.6 9.2
21/07:00am 23.8 24.5 18.9 74 3.1 SE 13 22 7 12 1020.4 1020.4 9.2
21/06:30am 23.3 23.5 18.6 75 3.0 ESE 15 24 8 13 1020.3 1020.3 9.2
21/06:00am 23.4 23.8 19.1 77 2.7 ESE 15 24 8 13 1019.8 1019.8 9.2
21/05:30am 23.5 23.8 18.8 75 3.0 ESE 15 26 8 14 1019.6 1019.6 9.2
21/05:00am 23.4 23.2 18.5 74 3.1 SE 17 28 9 15 1019.3 1019.3 9.2
21/04:30am 23.5 24.1 19.4 78 2.6 ESE 15 28 8 15 1018.9 1018.9 9.2
21/04:00am 23.3 23.0 19.2 78 2.6 ESE 19 30 10 16 1018.5 1018.5 9.2
21/03:30am 23.3 23.4 19.2 78 2.6 ESE 17 28 9 15 1018.8 1018.8 9.2
21/03:00am 23.4 23.1 19.1 77 2.7 ESE 19 28 10 15 1018.8 1018.8 9.2
21/02:30am 23.3 23.2 19.9 81 2.2 ESE 20 30 11 16 1019.0 1019.0 9.2
21/02:00am 22.9 23.6 21.5 92 0.9 ESE 20 33 11 18 1019.2 1019.2 9.2
21/01:30am 23.4 24.0 21.1 87 1.5 ESE 19 32 10 17 1019.6 1019.6 8.6
21/01:00am 23.8 24.9 21.3 86 1.6 ESE 17 28 9 15 1019.6 1019.6 8.4
21/12:30am 23.3 23.8 21.2 88 1.4 ESE 20 33 11 18 1019.8 1019.8 8.4
21/12:00am 23.9 24.3 20.6 82 2.1 ESE 19 28 10 15 1019.9 1019.9 8.4
 
Date/Time
EST
Temp
°C
App
Temp
°C
Dew
Point
°C
Rel
Hum
%
Delta-T
°C
Wind Press
QNH
hPa
Press
MSL
hPa
Rain since
9am
mm
Dir  Spd
km/h
Gust
km/h
Spd
kts
Gust
kts
20/11:30pm 23.5 25.7 21.8 90 1.1 ESE 13 22 7 12 1020.0 1020.0 8.4
20/11:00pm 23.4 24.4 21.1 87 1.5 ESE 17 28 9 15 1020.4 1020.4 8.4
20/10:30pm 23.6 24.6 21.7 89 1.3 ESE 19 32 10 17 1020.3 1020.3 8.4
20/10:00pm 23.4 24.7 21.7 90 1.1 ESE 17 30 9 16 1020.3 1020.3 8.4
20/09:30pm 23.4 24.6 21.5 89 1.3 ESE 17 28 9 15 1020.6 1020.6 8.4
20/09:00pm 23.2 25.5 22.7 97 0.3 SE 15 28 8 15 1020.5 1020.5 8.4
20/08:30pm 22.6 24.6 22.3 98 0.2 SE 15 22 8 12 1020.5 1020.5 8.4
20/08:00pm 22.8 24.6 22.6 99 0.1 SE 17 35 9 19 1020.4 1020.4 8.4
20/07:30pm 22.6 24.8 22.6 100 0.0 ESE 15 24 8 13 1020.2 1020.2 8.4
20/07:00pm 22.0 24.2 21.8 99 0.1 SSE 13 26 7 14 1019.8 1019.8 6.4
20/06:30pm 22.8 24.7 22.8 100 0.0 SE 17 30 9 16 1019.3 1019.3 6.4
20/06:00pm 22.1 23.7 22.1 100 0.0 ESE 17 26 9 14 1019.0 1019.0 6.2
20/05:30pm 22.2 23.3 22.0 99 0.1 ESE 19 30 10 16 1018.9 1018.9 4.0
20/05:00pm 24.0 26.0 22.3 90 1.1 ESE 15 24 8 13 1018.6 1018.6 0.6
20/04:30pm 23.8 26.9 22.8 94 0.7 SE 11 19 6 10 1018.7 1018.7 0.6
20/04:00pm 23.1 25.7 22.6 97 0.3 ESE 13 24 7 13 1018.5 1018.5 0.6
20/03:30pm 23.9 26.0 22.5 92 0.9 SE 15 26 8 14 1018.3 1018.3 0.2
20/03:00pm 24.6 25.6 21.1 81 2.3 ESE 17 32 9 17 1018.3 1018.3 0.2
20/02:30pm 24.9 25.7 21.4 81 2.3 SE 19 30 10 16 1018.3 1018.3 0.2
20/02:00pm 25.4 26.5 21.9 81 2.3 SE 19 30 10 16 1018.6 1018.6 0.2
20/01:30pm 25.0 25.3 20.5 76 2.9 ESE 19 32 10 17 1018.8 1018.8 0.2
20/01:00pm 25.0 24.9 20.7 77 2.8 ESE 22 35 12 19 1019.0 1019.0 0.2
20/12:30pm 25.4 26.5 21.3 78 2.7 ESE 17 32 9 17 1019.6 1019.6 0.2
20/12:00pm 24.9 25.1 20.6 77 2.8 E 20 30 11 16 1020.0 1020.0 0.2
20/11:30am 25.6 26.5 20.8 75 3.2 ESE 17 24 9 13 1020.4 1020.4 0.2
20/11:00am 24.9 25.9 21.0 79 2.6 ESE 17 30 9 16 1020.8 1020.8 0.2
20/10:30am 25.3 25.9 21.0 77 2.8 ESE 19 32 10 17 1021.0 1021.0 0.2
20/10:00am 25.4 26.2 21.3 78 2.7 ESE 19 32 10 17 1021.3 1021.3 0.0
20/09:30am 24.7 25.7 21.0 80 2.4 ESE 17 26 9 14 1021.4 1021.4 0.0
20/09:00am 24.3 25.3 21.8 86 1.7 ESE 19 28 10 15 1021.3 1021.3 26.6
20/08:30am 23.4 26.7 22.6 95 0.5 SSW 9 20 5 11 1021.1 1021.1 26.6
20/08:00am 23.0 24.1 21.3 90 1.1 SSE 17 26 9 14 1021.1 1021.1 26.6
20/07:30am 24.2 24.8 20.3 79 2.5 SE 17 26 9 14 1020.7 1020.7 26.2
20/07:00am 23.6 25.8 21.1 86 1.6 SE 11 20 6 11 1020.4 1020.4 26.2
20/06:30am 23.6 24.8 20.7 84 1.9 SE 15 30 8 16 1020.0 1020.0 25.8
20/06:00am 23.5 24.2 20.4 83 2.0 SE 17 26 9 14 1019.7 1019.7 25.6
20/05:30am 23.7 24.8 20.4 82 2.1 SE 15 30 8 16 1019.5 1019.5 25.6
20/05:00am 23.6 25.1 20.5 83 2.0 SE 13 24 7 13 1019.6 1019.6 25.6
20/04:30am 23.4 24.1 20.5 84 1.9 SE 17 28 9 15 1019.2 1019.2 25.6
20/04:00am 23.3 24.0 21.2 88 1.4 SE 19 35 10 19 1019.0 1019.0 25.6
20/03:30am 23.6 24.2 20.3 82 2.1 SE 17 26 9 14 1019.0 1019.0 25.6
20/03:00am 23.7 23.8 20.4 82 2.1 ESE 20 33 11 18 1019.1 1019.1 25.6
20/02:30am 23.1 23.0 19.5 80 2.3 ESE 19 30 10 16 1019.2 1019.2 25.6
20/02:00am 23.7 24.1 21.0 85 1.8 ESE 20 32 11 17 1019.3 1019.3 25.6
20/01:30am 23.5 24.4 20.8 85 1.8 ESE 17 28 9 15 1019.6 1019.6 25.6
20/01:00am 23.5 24.9 21.0 86 1.6 ESE 15 22 8 12 1019.8 1019.8 25.6
20/12:30am 23.2 24.7 22.0 93 0.8 ESE 17 26 9 14 1019.9 1019.9 25.6
20/12:00am 22.3 25.0 22.1 99 0.1 SE 11 20 6 11 1020.4 1020.4 25.6
 
Date/Time
EST
Temp
°C
App
Temp
°C
Dew
Point
°C
Rel
Hum
%
Delta-T
°C
Wind Press
QNH
hPa
Press
MSL
hPa
Rain since
9am
mm
Dir  Spd
km/h
Gust
km/h
Spd
kts
Gust
kts
19/11:30pm 21.5 22.1 21.3 99 0.1 ESE 20 41 11 22 1020.8 1020.8 25.4
19/11:00pm 22.7 25.2 22.4 98 0.2 SE 13 30 7 16 1021.2 1021.2 19.6
19/10:30pm 22.9 25.4 22.4 97 0.3 ESE 13 22 7 12 1021.1 1021.1 18.8

Other formats

Comma delimited format used in spreadsheet applications
http://www.bom.gov.au/fwo/IDQ60801/IDQ60801.94570.axf

JavaScript Object Notation format (JSON) in row-major order
http://www.bom.gov.au/fwo/IDQ60801/IDQ60801.94570.json

Data quality

Most of these data are generated automatically and are frequently updated. Quality checks on data are not normally performed. It is possible for incorrect values to appear. Refer to information at About Latest Weather Observations and please check the disclaimer before using these data.